Time;durP1;ratioP1;P1;durP2;ratioP2;P2;SDS_P1;SDS_P2;PMS_P1;PMS_P2;Temp;Humidity;BMP_temperature;BMP_pressure;BME280_temperature;BME280_humidity;BME280_pressure;Samples;Min_cycle;Max_cycle;Signal;HPM_P1;HPM_P2
2024/01/23 00:00:29;;;;;;;27.75;0.60;;;6.70;99.90;;;;;;4412440;32;20081;-73
2024/01/23 00:02:54;;;;;;;0.30;0.30;;;6.80;99.90;;;;;;4415701;32;20068;-73
2024/01/23 00:05:20;;;;;;;0.73;0.73;;;6.80;99.90;;;;;;4410944;32;20124;-73
2024/01/23 00:07:45;;;;;;;0.30;0.30;;;6.80;99.90;;;;;;4406778;32;20639;-72
2024/01/23 00:10:11;;;;;;;0.30;0.30;;;6.80;99.90;;;;;;4410009;32;20073;-73
2024/01/23 00:12:36;;;;;;;0.28;0.28;;;6.90;99.90;;;;;;4408973;32;20144;-73
2024/01/23 00:15:03;;;;;;;0.57;0.57;;;6.80;99.90;;;;;;4415486;32;20077;-72
2024/01/23 00:17:29;;;;;;;0.50;0.50;;;6.90;99.90;;;;;;4414761;32;20070;-73
2024/01/23 00:19:55;;;;;;;0.70;0.70;;;6.90;99.90;;;;;;4417140;32;20077;-73
2024/01/23 00:22:20;;;;;;;0.30;0.30;;;6.80;99.90;;;;;;4410358;32;20236;-73
2024/01/23 00:24:46;;;;;;;0.50;0.50;;;6.90;99.90;;;;;;4410041;32;20082;-73
2024/01/23 00:27:11;;;;;;;0.40;0.40;;;6.90;99.90;;;;;;4413009;32;20078;-72
2024/01/23 00:29:36;;;;;;;0.35;0.35;;;6.90;99.90;;;;;;4411805;32;20076;-73
2024/01/23 00:32:02;;;;;;;0.30;0.30;;;6.90;99.90;;;;;;4413788;32;20081;-74
2024/01/23 00:34:28;;;;;;;0.20;0.20;;;7.00;99.90;;;;;;4411586;32;20435;-73
2024/01/23 00:36:53;;;;;;;0.45;0.45;;;7.00;99.90;;;;;;4406300;32;20073;-73
2024/01/23 00:39:19;;;;;;;0.30;0.30;;;7.00;99.90;;;;;;4405908;32;20585;-75
2024/01/23 00:41:45;;;;;;;0.30;0.30;;;7.10;99.90;;;;;;4409717;32;20070;-74
2024/01/23 00:44:10;;;;;;;0.40;0.40;;;7.10;99.90;;;;;;4410209;32;20078;-75
2024/01/23 00:46:36;;;;;;;4.57;0.98;;;7.10;99.90;;;;;;4414548;32;20082;-75
2024/01/23 00:49:01;;;;;;;0.30;0.30;;;7.10;99.90;;;;;;4413751;32;20140;-75
2024/01/23 00:51:28;;;;;;;4.03;1.30;;;7.00;99.90;;;;;;4413260;32;20077;-74
2024/01/23 00:53:53;;;;;;;0.30;0.30;;;7.00;99.90;;;;;;4410266;32;20081;-75
2024/01/23 00:56:19;;;;;;;0.60;0.60;;;7.00;99.90;;;;;;4411820;32;20055;-75
2024/01/23 00:58:44;;;;;;;1.20;0.60;;;7.00;99.90;;;;;;4410946;32;20076;-75
2024/01/23 01:01:11;;;;;;;0.68;0.60;;;6.90;99.90;;;;;;4414210;32;20069;-74
2024/01/23 01:03:36;;;;;;;8.90;0.82;;;7.00;99.90;;;;;;4410620;32;20139;-76
2024/01/23 01:06:03;;;;;;;2.55;1.25;;;6.90;99.90;;;;;;4409656;32;20144;-74
2024/01/23 01:08:28;;;;;;;0.40;0.40;;;6.80;99.90;;;;;;4405143;32;20550;-75
2024/01/23 01:10:54;;;;;;;0.60;0.60;;;6.70;99.90;;;;;;4408307;32;20140;-75
2024/01/23 01:13:19;;;;;;;0.40;0.40;;;6.60;99.90;;;;;;4410753;32;20090;-75
2024/01/23 01:15:45;;;;;;;0.80;0.57;;;6.60;99.90;;;;;;4413616;32;20058;-74
2024/01/23 01:18:10;;;;;;;0.28;0.28;;;6.50;99.90;;;;;;4409775;32;20513;-74
2024/01/23 01:20:35;;;;;;;0.88;0.68;;;6.40;99.90;;;;;;4412523;32;20499;-75
2024/01/23 01:23:01;;;;;;;0.70;0.70;;;6.40;99.90;;;;;;4413986;32;20070;-74
2024/01/23 01:25:26;;;;;;;0.22;0.22;;;6.30;99.90;;;;;;4412516;32;20090;-74
2024/01/23 01:27:52;;;;;;;0.30;0.30;;;6.30;99.90;;;;;;4409317;32;20069;-75
2024/01/23 01:30:17;;;;;;;0.32;0.25;;;6.20;99.90;;;;;;4413968;32;20061;-72
2024/01/23 01:32:43;;;;;;;0.30;0.30;;;6.20;99.90;;;;;;4412182;32;20572;-72
2024/01/23 01:35:08;;;;;;;0.50;0.50;;;6.20;99.90;;;;;;4409335;32;20094;-72
2024/01/23 01:37:34;;;;;;;0.40;0.40;;;6.20;99.90;;;;;;4406982;32;20081;-72
2024/01/23 01:39:59;;;;;;;1.45;0.90;;;6.20;99.90;;;;;;4410713;32;20085;-72
2024/01/23 01:42:25;;;;;;;0.30;0.30;;;6.10;99.90;;;;;;4412475;32;20426;-72
2024/01/23 01:44:50;;;;;;;0.50;0.50;;;6.10;99.90;;;;;;4410006;32;20514;-72
2024/01/23 01:47:18;;;;;;;1.20;1.05;;;6.10;99.90;;;;;;4415549;32;20084;-72
2024/01/23 01:49:45;;;;;;;0.25;0.25;;;6.10;99.90;;;;;;4415011;32;20077;-72
2024/01/23 01:52:11;;;;;;;0.30;0.30;;;6.00;99.90;;;;;;4410296;32;20090;-72
2024/01/23 01:54:40;;;;;;;0.40;0.40;;;6.00;99.90;;;;;;4411711;32;20427;-72
2024/01/23 01:57:07;;;;;;;0.20;0.20;;;6.00;99.90;;;;;;4412980;32;20069;-72
2024/01/23 01:59:32;;;;;;;10.15;1.35;;;6.00;99.90;;;;;;4413563;32;20134;-72
2024/01/23 02:01:59;;;;;;;0.40;0.40;;;5.90;99.90;;;;;;4414760;32;20592;-72
2024/01/23 02:04:25;;;;;;;0.30;0.30;;;5.90;99.90;;;;;;4412413;32;20203;-72
2024/01/23 02:06:51;;;;;;;0.30;0.30;;;5.90;99.90;;;;;;4412780;32;20144;-72
2024/01/23 02:09:17;;;;;;;1.58;0.40;;;5.90;99.90;;;;;;4412600;32;20097;-72
2024/01/23 02:11:59;;;;;;;0.30;0.30;;;5.90;99.90;;;;;;4414601;32;20070;-74
2024/01/23 02:14:26;;;;;;;0.20;0.20;;;5.80;99.90;;;;;;4414272;32;21493;-72
2024/01/23 02:16:51;;;;;;;0.43;0.43;;;5.90;99.90;;;;;;4415880;32;20101;-72
2024/01/23 02:19:17;;;;;;;0.40;0.40;;;5.80;99.90;;;;;;4413680;32;20081;-72
2024/01/23 02:21:42;;;;;;;0.25;0.25;;;5.80;99.90;;;;;;4413713;32;20534;-72
2024/01/23 02:24:07;;;;;;;0.30;0.30;;;5.80;99.90;;;;;;4414402;32;20077;-72
2024/01/23 02:26:33;;;;;;;0.30;0.30;;;5.70;99.90;;;;;;4418157;32;20086;-72
2024/01/23 02:28:58;;;;;;;0.30;0.30;;;5.70;99.90;;;;;;4415340;32;20076;-71
2024/01/23 02:31:24;;;;;;;0.28;0.28;;;5.70;99.90;;;;;;4412123;32;20078;-71
2024/01/23 02:33:49;;;;;;;0.82;0.82;;;5.70;99.90;;;;;;4414195;32;20584;-71
2024/01/23 02:36:15;;;;;;;2.08;1.10;;;5.70;99.90;;;;;;4414271;32;20086;-74
2024/01/23 02:38:41;;;;;;;0.73;0.60;;;5.70;99.90;;;;;;4410577;32;20127;-74
2024/01/23 02:41:06;;;;;;;0.30;0.30;;;5.70;99.90;;;;;;4412288;32;20439;-74
2024/01/23 02:43:32;;;;;;;0.28;0.28;;;5.80;99.90;;;;;;4412395;32;20540;-72
2024/01/23 02:45:57;;;;;;;0.35;0.35;;;5.80;99.90;;;;;;4413655;32;21209;-74
2024/01/23 02:48:23;;;;;;;0.37;0.37;;;5.80;99.90;;;;;;4415661;32;21825;-77
2024/01/23 02:50:48;;;;;;;0.65;0.65;;;5.80;99.90;;;;;;4414895;32;20082;-72
2024/01/23 02:53:14;;;;;;;0.50;0.50;;;5.80;99.90;;;;;;4413324;32;20094;-72
2024/01/23 02:55:39;;;;;;;0.40;0.40;;;5.80;99.90;;;;;;4414776;32;20069;-73
2024/01/23 02:58:05;;;;;;;0.62;0.62;;;5.80;99.90;;;;;;4412753;32;20135;-72
2024/01/23 03:00:30;;;;;;;0.37;0.37;;;5.90;99.90;;;;;;4414459;32;20144;-71
2024/01/23 03:02:56;;;;;;;3.15;1.75;;;5.80;99.90;;;;;;4414956;32;20083;-71
2024/01/23 03:05:21;;;;;;;0.30;0.30;;;5.80;99.90;;;;;;4411157;32;20141;-71
2024/01/23 03:07:47;;;;;;;0.50;0.50;;;5.90;99.90;;;;;;4412855;32;20089;-71
2024/01/23 03:10:12;;;;;;;0.37;0.37;;;5.90;99.90;;;;;;4411912;32;20137;-71
2024/01/23 03:12:38;;;;;;;0.30;0.30;;;5.90;99.90;;;;;;4414801;32;20090;-72
2024/01/23 03:15:04;;;;;;;0.82;0.82;;;5.90;99.90;;;;;;4416234;32;20073;-71
2024/01/23 03:17:29;;;;;;;3.87;1.70;;;5.90;99.90;;;;;;4416186;32;20089;-71
2024/01/23 03:19:55;;;;;;;0.40;0.40;;;5.90;99.90;;;;;;4413370;32;20081;-71
2024/01/23 03:22:20;;;;;;;0.68;0.50;;;5.90;99.90;;;;;;4411058;32;20130;-71
2024/01/23 03:24:46;;;;;;;0.20;0.20;;;5.90;99.90;;;;;;4412639;32;20069;-71
2024/01/23 03:27:11;;;;;;;0.65;0.65;;;5.90;99.90;;;;;;4412352;32;20090;-72
2024/01/23 03:29:42;;;;;;;0.40;0.40;;;5.90;99.90;;;;;;4416164;32;20070;-71
2024/01/23 03:32:10;;;;;;;0.20;0.20;;;5.90;99.90;;;;;;4413976;32;20074;-71
2024/01/23 03:34:36;;;;;;;7.22;1.37;;;5.90;99.90;;;;;;4410949;32;20128;-71
2024/01/23 03:37:02;;;;;;;0.70;0.65;;;5.90;99.90;;;;;;4411846;32;20587;-71
2024/01/23 03:39:28;;;;;;;3.25;1.05;;;5.90;99.90;;;;;;4410151;32;20081;-71
2024/01/23 03:41:54;;;;;;;0.55;0.55;;;5.90;99.90;;;;;;4413535;32;20576;-71
2024/01/23 03:44:23;;;;;;;2.92;1.17;;;5.90;99.90;;;;;;4412911;32;20265;-72
2024/01/23 03:46:49;;;;;;;0.25;0.25;;;5.90;99.90;;;;;;4413116;32;20077;-71
2024/01/23 03:49:14;;;;;;;0.40;0.40;;;5.90;99.90;;;;;;4413725;32;20513;-74
2024/01/23 03:51:40;;;;;;;0.32;0.32;;;5.90;99.90;;;;;;4413222;32;20101;-73
2024/01/23 03:54:05;;;;;;;0.30;0.30;;;5.90;99.90;;;;;;4412901;32;20086;-74
2024/01/23 03:56:31;;;;;;;0.28;0.28;;;5.90;99.90;;;;;;4415345;32;20081;-74
2024/01/23 03:58:56;;;;;;;0.40;0.40;;;5.80;99.90;;;;;;4413759;32;20061;-74
2024/01/23 04:01:22;;;;;;;0.22;0.22;;;5.80;99.90;;;;;;4410659;32;20065;-73
2024/01/23 04:03:47;;;;;;;0.30;0.30;;;5.80;99.90;;;;;;4409364;32;20074;-73
2024/01/23 04:06:13;;;;;;;1.95;0.60;;;5.80;99.90;;;;;;4411349;32;20488;-74
2024/01/23 04:08:38;;;;;;;0.50;0.50;;;5.90;99.90;;;;;;4409368;32;20405;-74
2024/01/23 04:11:04;;;;;;;0.20;0.20;;;5.90;99.90;;;;;;4409266;32;20085;-72
2024/01/23 04:13:29;;;;;;;0.40;0.40;;;5.80;99.90;;;;;;4410874;32;20108;-73
2024/01/23 04:15:56;;;;;;;0.30;0.30;;;5.80;99.90;;;;;;4412846;32;20528;-72
2024/01/23 04:18:21;;;;;;;0.30;0.30;;;5.80;99.90;;;;;;4413042;32;20078;-74
2024/01/23 04:20:47;;;;;;;0.30;0.30;;;5.80;99.90;;;;;;4412596;32;20070;-74
2024/01/23 04:23:12;;;;;;;0.40;0.40;;;5.70;99.90;;;;;;4410320;32;20490;-74
2024/01/23 04:25:38;;;;;;;0.20;0.20;;;5.70;99.90;;;;;;4412930;32;20081;-74
2024/01/23 04:28:04;;;;;;;0.93;0.93;;;5.70;99.90;;;;;;4411920;32;20426;-74
2024/01/23 04:30:29;;;;;;;0.40;0.40;;;5.70;99.90;;;;;;4413285;32;20078;-74
2024/01/23 04:32:54;;;;;;;2.08;0.93;;;5.70;99.90;;;;;;4412057;32;20132;-74
2024/01/23 04:35:20;;;;;;;0.30;0.30;;;5.70;99.90;;;;;;4414077;32;20520;-73
2024/01/23 04:37:46;;;;;;;0.30;0.30;;;5.70;99.90;;;;;;4410688;32;20117;-74
2024/01/23 04:40:11;;;;;;;3.00;1.08;;;5.70;99.90;;;;;;4410154;32;20085;-74
2024/01/23 04:42:37;;;;;;;0.30;0.30;;;5.70;99.90;;;;;;4409243;32;20097;-72
2024/01/23 04:45:04;;;;;;;0.30;0.30;;;5.80;99.90;;;;;;4413804;32;20069;-71
2024/01/23 04:47:29;;;;;;;0.30;0.30;;;5.80;99.90;;;;;;4413600;32;20068;-72
2024/01/23 04:49:55;;;;;;;1.10;0.85;;;5.80;99.90;;;;;;4411246;32;20340;-72
2024/01/23 04:52:20;;;;;;;0.40;0.40;;;5.70;99.90;;;;;;4411566;32;20537;-72
2024/01/23 04:54:46;;;;;;;0.30;0.30;;;5.70;99.90;;;;;;4413028;32;20073;-71
2024/01/23 04:57:14;;;;;;;0.40;0.40;;;5.70;99.90;;;;;;4416132;32;20078;-72
2024/01/23 04:59:39;;;;;;;0.28;0.28;;;5.60;99.90;;;;;;4411012;32;20129;-72
2024/01/23 05:02:05;;;;;;;0.52;0.52;;;5.60;99.90;;;;;;4412151;32;20495;-73
2024/01/23 05:04:31;;;;;;;0.30;0.30;;;5.50;99.90;;;;;;4414343;32;20081;-73
2024/01/23 05:06:56;;;;;;;0.40;0.40;;;5.50;99.90;;;;;;4411938;32;20128;-74
2024/01/23 05:09:21;;;;;;;0.30;0.30;;;5.50;99.90;;;;;;4411100;32;20086;-73
2024/01/23 05:11:47;;;;;;;0.30;0.30;;;5.50;99.90;;;;;;4413108;32;20069;-72
2024/01/23 05:14:16;;;;;;;0.40;0.40;;;5.50;99.90;;;;;;4410863;32;20061;-72
2024/01/23 05:16:41;;;;;;;0.37;0.37;;;5.40;99.90;;;;;;4418257;32;20070;-71
2024/01/23 05:19:07;;;;;;;0.30;0.30;;;5.40;99.90;;;;;;4409798;32;20509;-71
2024/01/23 05:21:32;;;;;;;0.30;0.30;;;5.40;99.90;;;;;;4406776;32;20094;-72
2024/01/23 05:23:58;;;;;;;0.20;0.20;;;5.40;99.90;;;;;;4408612;32;20073;-72
2024/01/23 05:26:24;;;;;;;0.55;0.55;;;5.30;99.90;;;;;;4415581;32;20538;-72
2024/01/23 05:28:49;;;;;;;0.57;0.57;;;5.30;99.90;;;;;;4410878;32;20086;-72
2024/01/23 05:31:15;;;;;;;0.30;0.30;;;5.30;99.90;;;;;;4411494;32;20435;-72
2024/01/23 05:33:40;;;;;;;0.40;0.40;;;5.30;99.90;;;;;;4411930;32;20076;-73
2024/01/23 05:36:06;;;;;;;0.50;0.50;;;5.30;99.90;;;;;;4411484;32;20069;-75
2024/01/23 05:38:32;;;;;;;0.30;0.30;;;5.30;99.90;;;;;;4410904;32;20086;-73
2024/01/23 05:40:57;;;;;;;0.25;0.25;;;5.30;99.90;;;;;;4407314;32;20082;-73
2024/01/23 05:43:23;;;;;;;23.87;2.78;;;5.20;99.90;;;;;;4411078;32;20078;-74
2024/01/23 05:45:49;;;;;;;0.40;0.40;;;5.30;99.90;;;;;;4412365;32;20184;-73
2024/01/23 05:48:15;;;;;;;0.30;0.30;;;5.30;99.90;;;;;;4411882;32;20065;-72
2024/01/23 05:50:41;;;;;;;0.30;0.30;;;5.30;99.90;;;;;;4413069;32;20109;-73
2024/01/23 05:53:06;;;;;;;0.30;0.30;;;5.30;99.90;;;;;;4406020;32;20069;-74
2024/01/23 05:55:32;;;;;;;0.40;0.40;;;5.30;99.90;;;;;;4409840;32;20498;-73
2024/01/23 05:57:58;;;;;;;0.50;0.50;;;5.20;99.90;;;;;;4411949;32;20573;-74
2024/01/23 06:00:23;;;;;;;0.43;0.43;;;5.20;99.90;;;;;;4413005;32;20357;-72
2024/01/23 06:02:49;;;;;;;0.30;0.30;;;5.20;99.90;;;;;;4410311;32;20085;-74
2024/01/23 06:05:14;;;;;;;0.43;0.43;;;5.20;99.90;;;;;;4407429;32;20066;-74
2024/01/23 06:07:43;;;;;;;2.12;0.85;;;5.20;99.90;;;;;;4394085;32;20541;-74
2024/01/23 06:10:09;;;;;;;0.30;0.30;;;5.20;99.90;;;;;;4408461;32;20078;-75
2024/01/23 06:12:35;;;;;;;0.30;0.30;;;5.20;99.90;;;;;;4409815;32;20080;-75
2024/01/23 06:15:01;;;;;;;4.35;1.75;;;5.20;99.90;;;;;;4394280;32;20620;-75
2024/01/23 06:17:29;;;;;;;3.30;1.10;;;5.20;99.90;;;;;;4403525;32;20185;-74
2024/01/23 06:19:54;;;;;;;0.30;0.30;;;5.30;99.90;;;;;;4402464;32;20145;-76
2024/01/23 06:22:20;;;;;;;0.40;0.40;;;5.30;99.90;;;;;;4394030;32;20089;-75
2024/01/23 06:25:07;;;;;;;2.92;1.15;;;5.30;99.90;;;;;;4403240;32;20070;-75
2024/01/23 06:27:33;;;;;;;0.50;0.50;;;5.40;99.90;;;;;;4369657;32;20189;-75
2024/01/23 06:29:59;;;;;;;0.45;0.45;;;5.40;99.90;;;;;;4400330;32;20074;-73
2024/01/23 06:32:25;;;;;;;0.30;0.30;;;5.40;99.90;;;;;;4399270;32;20098;-74
2024/01/23 06:34:51;;;;;;;2.75;1.00;;;5.40;99.90;;;;;;4400891;32;20082;-74
2024/01/23 06:37:18;;;;;;;2.87;0.95;;;5.40;99.90;;;;;;4401625;32;20560;-74
2024/01/23 06:39:43;;;;;;;0.40;0.40;;;5.50;99.90;;;;;;4400390;32;20098;-73
2024/01/23 06:42:09;;;;;;;5.32;1.40;;;5.50;99.90;;;;;;4402080;32;20533;-74
2024/01/23 06:44:35;;;;;;;0.30;0.30;;;5.50;99.90;;;;;;4401967;32;20691;-73
2024/01/23 06:47:00;;;;;;;0.40;0.40;;;5.60;99.90;;;;;;4404307;32;20099;-73
2024/01/23 06:49:26;;;;;;;0.32;0.32;;;5.50;99.90;;;;;;4406689;32;20078;-71
2024/01/23 06:51:52;;;;;;;0.28;0.28;;;5.50;99.90;;;;;;4397873;32;20601;-72
2024/01/23 06:54:17;;;;;;;4.35;1.30;;;5.60;99.90;;;;;;4394121;32;20301;-71
2024/01/23 06:56:45;;;;;;;0.30;0.30;;;5.60;99.90;;;;;;4384555;32;20081;-72
2024/01/23 06:59:12;;;;;;;0.68;0.68;;;5.60;99.90;;;;;;4379468;32;20085;-72
2024/01/23 07:01:38;;;;;;;2.55;0.47;;;5.70;99.90;;;;;;4373511;32;20105;-72
2024/01/23 07:04:03;;;;;;;0.32;0.32;;;5.70;99.90;;;;;;4377740;32;20457;-73
2024/01/23 07:06:29;;;;;;;1.27;0.80;;;5.70;99.90;;;;;;4372906;32;20791;-73
2024/01/23 07:08:54;;;;;;;2.47;0.70;;;5.80;99.90;;;;;;4371103;32;20090;-72
2024/01/23 07:11:20;;;;;;;0.50;0.50;;;5.80;99.90;;;;;;4373756;32;20233;-73
2024/01/23 07:13:46;;;;;;;1.83;1.17;;;5.90;99.90;;;;;;4376647;32;20105;-72
2024/01/23 07:16:12;;;;;;;2.17;0.85;;;5.90;99.90;;;;;;4382440;32;20098;-73
2024/01/23 07:18:38;;;;;;;0.35;0.35;;;5.90;99.90;;;;;;4387503;32;20133;-73
2024/01/23 07:21:04;;;;;;;0.65;0.65;;;6.00;99.90;;;;;;4370841;32;20225;-72
2024/01/23 07:23:30;;;;;;;0.77;0.65;;;6.00;99.90;;;;;;4386436;32;20090;-72
2024/01/23 07:25:58;;;;;;;1.15;1.08;;;6.10;99.90;;;;;;4381506;32;20605;-72
2024/01/23 07:28:23;;;;;;;0.70;0.57;;;6.10;99.90;;;;;;4378973;32;20916;-71
2024/01/23 07:30:49;;;;;;;1.40;1.30;;;6.10;99.90;;;;;;4386562;32;20098;-72
2024/01/23 07:33:15;;;;;;;0.30;0.30;;;6.10;99.90;;;;;;4381050;32;20119;-72
2024/01/23 07:35:41;;;;;;;0.40;0.40;;;6.20;99.90;;;;;;4376161;32;20240;-71
2024/01/23 07:38:10;;;;;;;10.73;1.40;;;6.20;99.90;;;;;;4380563;32;20229;-72
2024/01/23 07:40:37;;;;;;;1.02;0.95;;;6.20;99.90;;;;;;4380951;32;20082;-73
2024/01/23 07:43:03;;;;;;;0.60;0.60;;;6.20;99.90;;;;;;4371585;32;20637;-75
2024/01/23 07:45:29;;;;;;;0.30;0.30;;;6.20;99.90;;;;;;4379905;32;20827;-74
2024/01/23 07:47:55;;;;;;;0.40;0.40;;;6.30;99.90;;;;;;4381603;32;20403;-74
2024/01/23 07:50:21;;;;;;;0.30;0.30;;;6.30;99.90;;;;;;4384881;32;21531;-72
2024/01/23 07:52:46;;;;;;;1.52;0.57;;;6.30;99.90;;;;;;4381021;32;20666;-72
2024/01/23 07:55:12;;;;;;;2.12;1.67;;;6.30;99.90;;;;;;4375361;32;21929;-75
2024/01/23 07:57:37;;;;;;;1.10;0.95;;;6.30;99.90;;;;;;4373265;32;20222;-75
2024/01/23 08:00:04;;;;;;;0.30;0.30;;;6.30;99.90;;;;;;4385301;32;20802;-75
2024/01/23 08:02:30;;;;;;;0.30;0.30;;;6.30;99.90;;;;;;4397149;32;20166;-79
2024/01/23 08:04:56;;;;;;;1.25;0.40;;;6.30;99.90;;;;;;4390094;32;20081;-76
2024/01/23 08:07:22;;;;;;;1.33;0.88;;;6.40;99.90;;;;;;4386031;32;20086;-76
2024/01/23 08:09:48;;;;;;;0.40;0.40;;;6.40;99.90;;;;;;4394081;32;20681;-76
2024/01/23 08:12:27;;;;;;;2.30;1.00;;;6.40;99.90;;;;;;4394607;32;20116;-75
2024/01/23 08:14:55;;;;;;;0.30;0.30;;;6.40;99.90;;;;;;4396795;32;20085;-76
2024/01/23 08:17:26;;;;;;;2.17;1.10;;;6.40;99.90;;;;;;4393588;32;20105;-76
2024/01/23 08:19:54;;;;;;;1.77;0.60;;;6.50;99.90;;;;;;4392874;32;20148;-75
2024/01/23 08:22:25;;;;;;;0.25;0.25;;;6.50;99.90;;;;;;4401596;32;20097;-75
2024/01/23 08:24:57;;;;;;;0.62;0.62;;;6.50;99.90;;;;;;4396639;32;20419;-74
2024/01/23 08:27:23;;;;;;;0.77;0.50;;;6.50;99.90;;;;;;4395473;32;20718;-75
2024/01/23 08:29:49;;;;;;;2.92;0.62;;;6.60;99.90;;;;;;4391236;32;20097;-74
2024/01/23 08:32:14;;;;;;;0.30;0.30;;;6.60;99.90;;;;;;4375873;32;20446;-74
2024/01/23 08:34:41;;;;;;;0.35;0.35;;;6.60;99.90;;;;;;4378491;32;20134;-75
2024/01/23 08:37:06;;;;;;;3.00;1.37;;;6.70;99.90;;;;;;4387222;32;20085;-74
2024/01/23 08:39:32;;;;;;;0.50;0.50;;;6.70;99.90;;;;;;4390104;32;20133;-74
2024/01/23 08:41:57;;;;;;;0.25;0.25;;;6.70;99.90;;;;;;4392290;32;20124;-76
2024/01/23 08:44:23;;;;;;;3.92;1.20;;;6.70;99.90;;;;;;4393170;32;20069;-74
2024/01/23 08:46:49;;;;;;;0.40;0.40;;;6.70;99.90;;;;;;4388551;32;20118;-76
2024/01/23 08:49:15;;;;;;;2.60;0.68;;;6.70;99.90;;;;;;4363740;32;20113;-76
2024/01/23 08:51:41;;;;;;;0.37;0.37;;;6.70;99.90;;;;;;4383380;32;20070;-74
2024/01/23 08:54:06;;;;;;;0.50;0.50;;;6.70;99.90;;;;;;4376783;32;20171;-73
2024/01/23 08:56:32;;;;;;;3.28;0.77;;;6.70;99.90;;;;;;4375429;32;20090;-74
2024/01/23 08:58:57;;;;;;;3.92;1.15;;;6.70;99.90;;;;;;4386109;32;20132;-73
2024/01/23 09:01:23;;;;;;;2.20;1.00;;;6.80;99.90;;;;;;4382701;32;20065;-72
2024/01/23 09:03:48;;;;;;;0.47;0.47;;;6.80;99.90;;;;;;4380606;32;20139;-73
2024/01/23 09:06:14;;;;;;;0.85;0.85;;;6.80;99.90;;;;;;4390457;32;20533;-73
2024/01/23 09:08:42;;;;;;;1.52;0.50;;;6.90;99.90;;;;;;4384944;32;20089;-74
2024/01/23 09:11:08;;;;;;;3.40;1.58;;;6.90;99.90;;;;;;4385033;32;20109;-74
2024/01/23 09:13:33;;;;;;;3.95;0.77;;;6.90;99.90;;;;;;4386630;32;20098;-73
2024/01/23 09:15:59;;;;;;;0.22;0.22;;;7.00;99.90;;;;;;4380860;32;20726;-78
2024/01/23 09:18:25;;;;;;;0.40;0.40;;;7.00;99.90;;;;;;4387647;32;20093;-73
2024/01/23 09:20:51;;;;;;;1.65;1.42;;;7.00;99.90;;;;;;4387359;32;21953;-73
2024/01/23 09:23:17;;;;;;;2.45;0.88;;;7.00;99.90;;;;;;4388260;32;20291;-72
2024/01/23 09:25:42;;;;;;;0.43;0.37;;;7.10;99.90;;;;;;4388881;32;20073;-73
2024/01/23 09:28:08;;;;;;;0.50;0.45;;;7.10;99.90;;;;;;4384085;32;20135;-74
2024/01/23 09:30:34;;;;;;;0.20;0.20;;;7.10;99.90;;;;;;4379419;32;20134;-73
2024/01/23 09:33:00;;;;;;;1.05;0.98;;;7.10;99.90;;;;;;4380390;32;20644;-74
2024/01/23 09:35:25;;;;;;;4.12;1.27;;;7.10;99.90;;;;;;4377379;32;20102;-73
2024/01/23 09:37:51;;;;;;;0.62;0.62;;;7.10;99.90;;;;;;4380062;32;20621;-75
2024/01/23 09:40:17;;;;;;;0.65;0.65;;;7.20;99.90;;;;;;4379870;32;20169;-78
2024/01/23 09:42:44;;;;;;;1.85;0.73;;;7.20;99.90;;;;;;4396989;32;20146;-75
2024/01/23 09:45:14;;;;;;;0.65;0.55;;;7.20;99.90;;;;;;4395495;32;20612;-75
2024/01/23 09:47:41;;;;;;;;;;;7.20;99.90;;;;;;4397634;32;20112;-76
2024/01/23 09:50:11;;;;;;;0.73;0.73;;;7.20;99.90;;;;;;4401455;32;20027;-76
2024/01/23 09:52:38;;;;;;;0.50;0.50;;;7.20;99.90;;;;;;4397107;32;20127;-76
2024/01/23 09:55:04;;;;;;;1.45;0.80;;;7.30;99.90;;;;;;4389887;32;20694;-78
2024/01/23 09:57:31;;;;;;;0.50;0.50;;;7.40;99.90;;;;;;4395780;32;20070;-76
2024/01/23 09:59:58;;;;;;;0.50;0.50;;;7.40;99.90;;;;;;4399640;32;20735;-77
2024/01/23 10:02:31;;;;;;;0.30;0.30;;;7.50;99.90;;;;;;4407298;32;20069;-77
2024/01/23 10:05:07;;;;;;;0.32;0.32;;;7.60;99.90;;;;;;4403537;32;20093;-76
2024/01/23 10:07:32;;;;;;;0.77;0.45;;;7.60;99.90;;;;;;4409677;32;20069;-76
2024/01/23 10:10:13;;;;;;;0.40;0.40;;;7.60;99.90;;;;;;4406766;32;20069;-75
2024/01/23 10:12:44;;;;;;;0.40;0.40;;;7.60;99.90;;;;;;4396872;32;20090;-76
2024/01/23 10:15:12;;;;;;;0.52;0.52;;;7.60;99.90;;;;;;4398518;32;20074;-76
2024/01/23 10:17:38;;;;;;;1.98;0.73;;;7.50;99.90;;;;;;4397134;32;20439;-77
2024/01/23 10:20:04;;;;;;;1.12;1.05;;;7.50;99.90;;;;;;4387564;32;20829;-76
2024/01/23 10:22:30;;;;;;;0.52;0.52;;;7.50;99.90;;;;;;4370168;32;20099;-76
2024/01/23 10:24:55;;;;;;;0.30;0.30;;;7.50;99.90;;;;;;4384173;32;20163;-76
2024/01/23 10:27:21;;;;;;;0.40;0.40;;;7.50;99.90;;;;;;4382107;32;20085;-75
2024/01/23 10:29:46;;;;;;;0.37;0.37;;;7.60;99.90;;;;;;4368066;32;20089;-77
2024/01/23 10:32:12;;;;;;;1.65;0.73;;;7.50;99.90;;;;;;4377717;32;20078;-78
2024/01/23 10:34:37;;;;;;;0.70;0.65;;;7.60;99.90;;;;;;4376594;32;20110;-76
2024/01/23 10:37:03;;;;;;;0.65;0.65;;;7.60;99.90;;;;;;4393998;32;21085;-77
2024/01/23 10:39:29;;;;;;;0.32;0.32;;;7.70;99.90;;;;;;4396977;32;20082;-74
2024/01/23 10:41:56;;;;;;;8.10;2.37;;;7.70;99.90;;;;;;4393437;32;20089;-77
2024/01/23 10:44:23;;;;;;;0.50;0.50;;;7.80;99.90;;;;;;4392246;32;20753;-75
2024/01/23 10:46:49;;;;;;;0.50;0.50;;;7.80;99.90;;;;;;4395809;32;20070;-77
2024/01/23 10:49:15;;;;;;;4.15;1.92;;;7.80;99.90;;;;;;4392074;32;20841;-74
2024/01/23 10:51:44;;;;;;;4.50;1.23;;;7.80;99.90;;;;;;4386946;32;20090;-75
2024/01/23 10:54:23;;;;;;;0.30;0.30;;;7.90;99.90;;;;;;4384904;32;21237;-74
2024/01/23 10:56:53;;;;;;;0.73;0.73;;;7.90;99.90;;;;;;4396008;32;20093;-74
2024/01/23 10:59:25;;;;;;;0.30;0.30;;;7.90;99.90;;;;;;4397147;32;20065;-75
2024/01/23 11:01:59;;;;;;;20.73;2.10;;;7.90;99.90;;;;;;4385810;32;20066;-77
2024/01/23 11:04:33;;;;;;;0.70;0.70;;;8.00;99.90;;;;;;4399276;32;20085;-74
2024/01/23 11:07:16;;;;;;;4.72;1.10;;;8.10;99.90;;;;;;4397766;32;20142;-76
2024/01/23 11:09:53;;;;;;;0.40;0.40;;;8.20;99.90;;;;;;4397854;32;20401;-77
2024/01/23 11:12:31;;;;;;;0.30;0.30;;;8.00;99.90;;;;;;4380186;32;21285;-77
2024/01/23 11:15:01;;;;;;;0.40;0.40;;;8.10;99.90;;;;;;4377192;32;20367;-77
2024/01/23 11:17:32;;;;;;;0.60;0.60;;;8.00;99.90;;;;;;4381122;32;20797;-80
2024/01/23 11:20:08;;;;;;;0.90;0.47;;;8.00;99.90;;;;;;4385018;32;20097;-80
2024/01/23 11:22:36;;;;;;;0.62;0.57;;;8.20;99.90;;;;;;4384405;32;20093;-81
2024/01/23 11:25:11;;;;;;;0.37;0.37;;;8.40;99.90;;;;;;4370546;32;20117;-80
2024/01/23 11:27:40;;;;;;;0.93;0.88;;;8.50;99.90;;;;;;4395282;32;20090;-81
2024/01/23 11:30:11;;;;;;;2.25;0.43;;;8.60;99.90;;;;;;4390911;32;20533;-79
2024/01/23 11:32:37;;;;;;;2.00;1.40;;;8.60;99.90;;;;;;4396698;32;20085;-80
2024/01/23 11:35:06;;;;;;;1.08;0.85;;;8.60;99.90;;;;;;4394900;32;20067;-78
2024/01/23 11:37:34;;;;;;;4.80;1.67;;;8.60;99.90;;;;;;4394088;32;20432;-79
2024/01/23 11:40:00;;;;;;;1.00;0.85;;;8.70;99.90;;;;;;4390679;32;20085;-77
2024/01/23 11:42:41;;;;;;;0.30;0.30;;;8.80;99.90;;;;;;4398444;32;20109;-78
2024/01/23 11:45:25;;;;;;;1.10;1.08;;;8.80;99.90;;;;;;4382483;32;20081;-79
2024/01/23 11:47:56;;;;;;;5.03;1.48;;;8.80;99.90;;;;;;4385230;32;20768;-80
2024/01/23 11:50:23;;;;;;;4.62;2.08;;;9.00;99.90;;;;;;4393584;32;20205;-80
2024/01/23 11:52:52;;;;;;;0.20;0.20;;;9.10;99.90;;;;;;4388144;32;99103;-79
2024/01/23 11:55:19;;;;;;;5.07;1.75;;;9.10;99.90;;;;;;4382333;32;20482;-78
2024/01/23 11:57:49;;;;;;;2.10;0.85;;;9.00;99.90;;;;;;4380774;32;20093;-78
2024/01/23 12:00:16;;;;;;;0.98;0.82;;;9.00;99.90;;;;;;4389292;32;20419;-76
2024/01/23 12:02:43;;;;;;;1.12;1.02;;;9.00;99.90;;;;;;4390160;32;20093;-75
2024/01/23 12:05:09;;;;;;;1.50;1.02;;;8.90;99.90;;;;;;4381655;32;20807;-75
2024/01/23 12:07:37;;;;;;;0.40;0.40;;;8.90;99.90;;;;;;4387058;32;21498;-76
2024/01/23 12:10:05;;;;;;;1.05;0.65;;;9.00;99.90;;;;;;4380605;32;20073;-76
2024/01/23 12:12:30;;;;;;;0.60;0.60;;;9.30;99.90;;;;;;4390480;32;20061;-76
2024/01/23 12:14:57;;;;;;;2.45;1.12;;;9.30;99.90;;;;;;4389066;32;20097;-76
2024/01/23 12:17:23;;;;;;;0.62;0.62;;;9.10;99.90;;;;;;4392587;32;20062;-76
2024/01/23 12:19:48;;;;;;;0.50;0.50;;;9.10;99.90;;;;;;4392082;32;20573;-75
2024/01/23 12:22:15;;;;;;;0.82;0.82;;;9.00;99.90;;;;;;4384820;32;20517;-76
2024/01/23 12:24:42;;;;;;;17.00;1.48;;;8.80;99.90;;;;;;4382992;32;20654;-75
2024/01/23 12:27:08;;;;;;;2.28;0.90;;;8.70;99.90;;;;;;4386392;32;20135;-76
2024/01/23 12:29:34;;;;;;;0.37;0.37;;;8.70;99.90;;;;;;4391867;32;20505;-76
2024/01/23 12:32:01;;;;;;;9.75;1.10;;;8.60;99.90;;;;;;4385499;32;20077;-75
2024/01/23 12:34:29;;;;;;;1.10;0.43;;;8.40;99.90;;;;;;4387035;32;20613;-74
2024/01/23 12:36:59;;;;;;;2.90;2.15;;;8.40;99.90;;;;;;4377175;32;20165;-74
2024/01/23 12:39:24;;;;;;;3.40;0.73;;;8.40;99.90;;;;;;4379982;32;20100;-74
2024/01/23 12:41:50;;;;;;;24.15;1.50;;;8.40;99.90;;;;;;4378631;32;20608;-75
2024/01/23 12:44:16;;;;;;;0.35;0.35;;;8.40;99.90;;;;;;4382353;32;20275;-75
2024/01/23 12:46:42;;;;;;;1.37;1.02;;;8.50;99.90;;;;;;4385104;32;20173;-76
2024/01/23 12:49:07;;;;;;;1.12;0.82;;;8.50;99.90;;;;;;4387360;32;20628;-75
2024/01/23 12:51:36;;;;;;;0.30;0.30;;;8.50;99.90;;;;;;4387356;32;20081;-75
2024/01/23 12:54:01;;;;;;;0.88;0.82;;;8.50;99.90;;;;;;4380456;32;20106;-75